Time;durP1;ratioP1;P1;durP2;ratioP2;P2;SDS_P1;SDS_P2;PMS_P1;PMS_P2;Temp;Humidity;BMP_temperature;BMP_pressure;BME280_temperature;BME280_humidity;BME280_pressure;Samples;Min_cycle;Max_cycle;Signal;HPM_P1;HPM_P2
2023/10/15 00:00:47;;;;;;;15.60;12.63;;;;;;;13.04;82.60;92577.63;5043704;28;20194;-74
2023/10/15 00:03:12;;;;;;;13.53;12.43;;;;;;;13.00;82.76;92576.63;5046054;28;20233;-74
2023/10/15 00:05:38;;;;;;;13.93;12.70;;;;;;;12.96;82.52;92568.56;5036060;28;20193;-74
2023/10/15 00:08:03;;;;;;;12.60;11.57;;;;;;;13.00;82.50;92574.81;5037024;28;20245;-74
2023/10/15 00:10:32;;;;;;;13.23;12.03;;;;;;;13.02;81.75;92570.06;5047477;28;20206;-74
2023/10/15 00:12:59;;;;;;;13.07;12.07;;;;;;;12.99;81.57;92573.22;5035277;28;20218;-74
2023/10/15 00:15:28;;;;;;;13.03;11.83;;;;;;;13.05;82.40;92558.97;5047230;28;20278;-73
2023/10/15 00:17:58;;;;;;;12.63;11.73;;;;;;;12.93;81.63;92546.34;5039056;28;20190;-74
2023/10/15 00:20:27;;;;;;;14.00;12.60;;;;;;;12.89;83.15;92558.50;5033813;28;20186;-74
2023/10/15 00:22:53;;;;;;;13.27;12.17;;;;;;;12.94;83.40;92557.59;5048361;28;20170;-74
2023/10/15 00:25:22;;;;;;;12.80;11.80;;;;;;;12.81;83.48;92545.28;5046899;28;20201;-74
2023/10/15 00:27:56;;;;;;;13.83;12.07;;;;;;;12.80;82.93;92554.22;5046562;28;20246;-75
2023/10/15 00:30:22;;;;;;;13.67;12.53;;;;;;;12.75;82.34;92547.25;5047745;28;20245;-74
2023/10/15 00:32:49;;;;;;;13.47;12.23;;;;;;;12.91;81.36;92548.50;5039353;28;20230;-74
2023/10/15 00:35:21;;;;;;;13.70;12.30;;;;;;;12.84;82.92;92557.81;5046608;28;20197;-74
2023/10/15 00:37:56;;;;;;;12.60;11.47;;;;;;;12.77;82.73;92546.94;5046453;28;20247;-74
2023/10/15 00:40:26;;;;;;;13.47;11.90;;;;;;;12.78;82.64;92558.97;5043012;28;20178;-74
2023/10/15 00:42:52;;;;;;;13.37;12.27;;;;;;;12.78;82.64;92553.72;5047155;28;20181;-77
2023/10/15 00:45:19;;;;;;;13.53;12.23;;;;;;;12.76;82.78;92556.66;5042223;28;20239;-79
2023/10/15 00:50:43;;;;;;;12.87;11.73;;;;;;;12.75;83.28;92560.34;5043068;28;20181;-80
2023/10/15 00:53:23;;;;;;;14.40;13.30;;;;;;;12.89;82.04;92553.25;5044130;28;20288;-80
2023/10/15 00:56:04;;;;;;;14.30;13.23;;;;;;;12.81;83.49;92559.16;5036384;28;20179;-80
2023/10/15 00:58:32;;;;;;;14.00;12.70;;;;;;;12.86;83.46;92553.03;5047773;28;20260;-79
2023/10/15 01:01:20;;;;;;;13.83;11.40;;;;;;;12.90;83.50;92551.41;5050501;28;20201;-80
2023/10/15 01:03:56;;;;;;;13.43;12.43;;;;;;;12.88;83.27;92551.72;5038094;28;20234;-79
2023/10/15 01:09:09;;;;;;;13.00;12.10;;;;;;;12.80;82.55;92539.28;5047070;28;20229;-78
2023/10/15 01:11:44;;;;;;;13.73;11.53;;;;;;;12.74;83.45;92547.53;5048851;28;20208;-80
2023/10/15 01:14:25;;;;;;;13.40;12.30;;;;;;;12.85;82.83;92528.72;5047565;28;20214;-79
2023/10/15 01:16:51;;;;;;;13.10;12.13;;;;;;;12.74;83.15;92527.38;5051852;28;20178;-80
2023/10/15 01:19:19;;;;;;;13.37;12.17;;;;;;;12.71;83.37;92521.94;5051052;28;20217;-79
2023/10/15 01:24:22;;;;;;;13.30;12.30;;;;;;;12.66;84.09;92519.41;5053389;28;20358;-79
2023/10/15 01:27:27;;;;;;;12.70;11.80;;;;;;;12.66;84.60;92514.16;5051031;28;20890;-81
2023/10/15 01:29:41;;;;;;;13.53;12.40;;;;;;;12.61;84.49;92522.91;5042430;28;20221;-79
2023/10/15 01:32:11;;;;;;;13.10;12.10;;;;;;;12.60;84.03;92515.34;5047141;28;20241;-79
2023/10/15 01:34:48;;;;;;;13.80;12.60;;;;;;;12.66;83.88;92535.13;5045005;28;20225;-79
2023/10/15 01:39:48;;;;;;;13.87;12.67;;;;;;;12.68;83.13;92540.84;5045661;28;20233;-79
2023/10/15 01:42:32;;;;;;;14.47;12.70;;;;;;;12.74;83.46;92534.44;5043698;28;20186;-76
2023/10/15 01:45:13;;;;;;;12.13;11.33;;;;;;;12.70;83.50;92538.72;5040726;28;20242;-79
2023/10/15 01:50:23;;;;;;;13.50;12.30;;;;;;;12.71;83.88;92538.44;5045301;28;20189;-79
2023/10/15 01:52:54;;;;;;;12.93;12.03;;;;;;;12.72;83.56;92536.56;5045975;28;20214;-79
2023/10/15 01:55:20;;;;;;;13.27;12.07;;;;;;;12.62;84.22;92534.16;5039611;28;20190;-79
2023/10/15 01:57:46;;;;;;;13.80;12.70;;;;;;;12.65;84.53;92530.97;5045298;28;20209;-79
2023/10/15 02:00:17;;;;;;;17.17;11.50;;;;;;;12.56;84.77;92525.63;5044023;28;20170;-79
2023/10/15 02:02:42;;;;;;;14.03;12.63;;;;;;;12.60;84.81;92531.84;5045530;28;20242;-77
2023/10/15 02:05:29;;;;;;;13.83;12.43;;;;;;;12.57;84.26;92529.81;5050128;28;20220;-79
2023/10/15 02:07:56;;;;;;;13.43;12.23;;;;;;;12.48;84.35;92518.44;5049456;28;20182;-79
2023/10/15 02:10:22;;;;;;;13.43;12.40;;;;;;;12.45;84.50;92523.50;5050596;28;20196;-79
2023/10/15 02:12:52;;;;;;;15.43;12.53;;;;;;;12.53;83.93;92517.56;5046438;28;20244;-79
2023/10/15 02:15:22;;;;;;;13.93;12.80;;;;;;;12.38;84.90;92523.88;5054255;28;20265;-79
2023/10/15 02:17:51;;;;;;;15.17;13.83;;;;;;;12.29;86.13;92512.56;5050340;28;20213;-79
2023/10/15 02:20:26;;;;;;;15.03;13.53;;;;;;;12.28;86.14;92507.59;5041922;28;20187;-79
2023/10/15 02:22:53;;;;;;;14.07;12.77;;;;;;;12.34;85.33;92511.69;5047984;28;20191;-79
2023/10/15 02:25:26;;;;;;;14.57;13.37;;;;;;;12.24;86.69;92525.72;5049053;28;20192;-79
2023/10/15 02:27:51;;;;;;;14.07;12.83;;;;;;;12.23;86.78;92528.63;5037713;28;20253;-79
2023/10/15 02:30:17;;;;;;;14.17;12.73;;;;;;;12.28;85.94;92526.69;5050149;28;20194;-79
2023/10/15 02:32:43;;;;;;;14.23;12.90;;;;;;;12.32;85.76;92532.91;5048464;28;20751;-78
2023/10/15 02:35:12;;;;;;;15.20;13.23;;;;;;;12.23;86.02;92526.00;5044780;28;20194;-79
2023/10/15 02:37:40;;;;;;;14.33;13.23;;;;;;;12.25;85.42;92529.13;5050015;28;21790;-77
2023/10/15 02:40:16;;;;;;;14.87;13.67;;;;;;;12.26;85.14;92530.66;5050524;28;20205;-79
2023/10/15 02:42:43;;;;;;;14.73;12.87;;;;;;;12.16;85.42;92520.38;5046155;28;20210;-79
2023/10/15 02:45:14;;;;;;;13.63;12.53;;;;;;;12.06;85.80;92507.50;5049916;28;20237;-79
2023/10/15 02:47:42;;;;;;;14.87;13.47;;;;;;;12.15;86.50;92524.84;5050117;28;20210;-79
2023/10/15 02:50:10;;;;;;;13.53;12.53;;;;;;;12.12;86.89;92507.13;5049670;28;20220;-78
2023/10/15 02:52:35;;;;;;;14.87;13.47;;;;;;;12.14;87.02;92512.81;5047534;28;20202;-78
2023/10/15 02:55:08;;;;;;;13.77;12.67;;;;;;;12.15;86.90;92521.44;5044043;28;20242;-79
2023/10/15 02:57:39;;;;;;;14.67;13.20;;;;;;;12.08;87.04;92513.19;5041461;28;20227;-79
2023/10/15 03:00:28;;;;;;;14.40;12.97;;;;;;;11.93;88.08;92503.00;5048703;28;20214;-78
2023/10/15 03:02:55;;;;;;;14.87;12.90;;;;;;;11.79;88.13;92497.75;5038940;28;20176;-79
2023/10/15 03:05:30;;;;;;;14.83;13.37;;;;;;;11.81;88.24;92511.34;5045461;28;20194;-79
2023/10/15 03:07:56;;;;;;;15.70;13.87;;;;;;;12.03;87.25;92516.69;5034456;28;20182;-79
2023/10/15 03:10:21;;;;;;;15.63;14.33;;;;;;;12.00;87.37;92519.88;5042776;28;20275;-79
2023/10/15 03:12:47;;;;;;;15.27;13.50;;;;;;;11.93;87.20;92526.53;5046341;28;20206;-79
2023/10/15 03:15:14;;;;;;;14.53;13.53;;;;;;;11.88;88.04;92518.78;5049505;28;20179;-79
2023/10/15 03:17:48;;;;;;;13.77;12.57;;;;;;;11.97;87.96;92523.06;5040595;28;20187;-79
2023/10/15 03:22:44;;;;;;;16.63;14.17;;;;;;;11.87;88.13;92517.25;5042516;28;20211;-79
2023/10/15 03:25:13;;;;;;;15.73;13.23;;;;;;;11.77;88.98;92517.41;5041734;28;20186;-79
2023/10/15 03:27:48;;;;;;;14.60;13.20;;;;;;;11.56;89.44;92501.25;5044616;28;20209;-78
2023/10/15 03:30:14;;;;;;;16.10;14.47;;;;;;;11.63;89.66;92504.31;5038904;28;20269;-78
2023/10/15 03:32:41;;;;;;;14.77;13.23;;;;;;;11.85;88.83;92508.91;5048908;28;20212;-78
2023/10/15 03:35:17;;;;;;;14.90;13.70;;;;;;;11.67;88.73;92505.28;5050289;28;20249;-79
2023/10/15 03:37:46;;;;;;;14.10;13.10;;;;;;;11.81;88.59;92513.16;5048527;28;20209;-78
2023/10/15 03:40:17;;;;;;;13.80;12.70;;;;;;;11.76;88.73;92515.84;5044795;28;20257;-79
2023/10/15 03:42:42;;;;;;;13.87;12.73;;;;;;;11.69;88.98;92516.22;5049076;28;20196;-78
2023/10/15 03:45:09;;;;;;;17.20;12.37;;;;;;;11.65;89.78;92509.25;5043851;28;20236;-78
2023/10/15 03:47:39;;;;;;;16.17;13.87;;;;;;;11.66;89.59;92501.09;5042192;28;20197;-79
2023/10/15 03:50:09;;;;;;;13.97;12.90;;;;;;;11.72;90.02;92505.19;5053433;28;20209;-79
2023/10/15 03:52:34;;;;;;;15.00;13.20;;;;;;;11.59;90.25;92497.28;5063940;28;20207;-79
2023/10/15 03:55:00;;;;;;;13.40;12.33;;;;;;;11.57;90.96;92494.97;5062608;28;20922;-79
2023/10/15 03:57:28;;;;;;;13.53;12.50;;;;;;;11.67;91.75;92491.44;5081215;28;20173;-79
2023/10/15 03:59:55;;;;;;;14.13;12.80;;;;;;;11.51;92.57;92493.50;5047021;28;20225;-79
2023/10/15 04:02:54;;;;;;;14.00;13.10;;;;;;;11.59;92.23;92499.91;5064896;28;20186;-78
2023/10/15 04:05:20;;;;;;;14.23;12.93;;;;;;;11.60;92.90;92496.22;5043258;28;20240;-77
2023/10/15 04:07:48;;;;;;;13.80;12.67;;;;;;;11.59;93.12;92497.28;5020743;28;20184;-78
2023/10/15 04:10:15;;;;;;;16.93;13.53;;;;;;;11.52;94.26;92496.91;5067563;28;20692;-78
2023/10/15 04:12:43;;;;;;;14.40;13.07;;;;;;;11.56;93.51;92493.41;5063876;28;20355;-78
2023/10/15 04:15:21;;;;;;;13.77;12.47;;;;;;;11.50;92.97;92485.94;5067790;28;20193;-79
2023/10/15 04:17:51;;;;;;;14.50;13.23;;;;;;;11.59;93.42;92505.13;5066884;28;20346;-78
2023/10/15 04:20:25;;;;;;;14.30;13.20;;;;;;;11.66;93.63;92502.97;5048542;28;20208;-78
2023/10/15 04:22:53;;;;;;;13.80;12.70;;;;;;;11.52;94.72;92489.81;5042742;28;20190;-79
2023/10/15 04:25:26;;;;;;;15.00;13.77;;;;;;;11.69;93.55;92489.31;5043357;28;20186;-79
2023/10/15 04:27:55;;;;;;;15.67;14.23;;;;;;;11.69;92.51;92490.06;5044731;28;20190;-79
2023/10/15 04:30:21;;;;;;;14.57;13.27;;;;;;;11.51;92.95;92466.56;5047577;28;20184;-80
2023/10/15 04:32:47;;;;;;;15.70;14.33;;;;;;;11.59;92.97;92477.16;5042619;28;20216;-79
2023/10/15 04:35:18;;;;;;;15.00;13.37;;;;;;;11.56;93.33;92490.03;5046845;28;20251;-78
2023/10/15 04:37:54;;;;;;;17.70;13.23;;;;;;;11.58;92.98;92493.13;5046452;28;20193;-79
2023/10/15 04:40:23;;;;;;;16.53;13.63;;;;;;;11.65;93.13;92493.56;5048223;28;20190;-79
2023/10/15 04:42:50;;;;;;;14.23;12.00;;;;;;;11.53;92.52;92495.81;5048179;28;20244;-79
2023/10/15 04:45:49;;;;;;;14.33;12.90;;;;;;;11.58;92.75;92493.88;5044657;28;20312;-79
2023/10/15 04:48:25;;;;;;;15.57;14.13;;;;;;;11.51;92.15;92487.47;5050626;28;20210;-79
2023/10/15 04:50:51;;;;;;;19.23;13.73;;;;;;;11.57;93.09;92496.78;5050327;28;20206;-80
2023/10/15 04:55:47;;;;;;;15.23;13.67;;;;;;;11.67;91.84;92496.66;5047362;28;20300;-79
2023/10/15 04:58:13;;;;;;;14.70;13.37;;;;;;;11.67;91.80;92499.28;5046665;28;20232;-79
2023/10/15 05:00:47;;;;;;;15.20;13.70;;;;;;;11.66;91.67;92505.59;5049778;28;20205;-79
2023/10/15 05:03:14;;;;;;;14.90;13.43;;;;;;;11.77;91.50;92512.16;5082035;28;20225;-79
2023/10/15 05:05:42;;;;;;;14.27;12.77;;;;;;;11.78;90.87;92496.19;5048377;28;20184;-79
2023/10/15 05:08:10;;;;;;;15.03;13.47;;;;;;;11.82;91.24;92493.78;5045471;28;20236;-80
2023/10/15 05:10:38;;;;;;;14.67;13.47;;;;;;;11.91;92.24;92507.75;5042750;28;20187;-79
2023/10/15 05:13:03;;;;;;;18.47;13.27;;;;;;;11.99;91.68;92515.72;5045759;28;20233;-78
2023/10/15 05:15:29;;;;;;;18.97;12.17;;;;;;;12.11;91.51;92521.25;5050997;28;20251;-80
2023/10/15 05:17:54;;;;;;;20.53;14.20;;;;;;;12.14;90.93;92517.28;5048301;28;20194;-79
2023/10/15 05:20:20;;;;;;;15.30;13.83;;;;;;;12.21;91.09;92525.53;5049122;28;20196;-79
2023/10/15 05:22:47;;;;;;;17.30;14.87;;;;;;;12.20;91.43;92526.59;5046843;28;21071;-76
2023/10/15 05:25:18;;;;;;;15.27;13.70;;;;;;;12.13;91.48;92531.41;5041741;28;20187;-76
2023/10/15 05:27:52;;;;;;;16.90;15.27;;;;;;;12.20;91.94;92521.38;5049512;28;20189;-86
2023/10/15 05:30:18;;;;;;;15.80;14.33;;;;;;;12.31;91.14;92525.34;5038860;28;20179;-86
2023/10/15 05:32:44;;;;;;;14.33;12.83;;;;;;;12.37;90.59;92513.72;5039385;28;20277;-81
2023/10/15 05:35:10;;;;;;;15.67;14.17;;;;;;;12.60;88.65;92525.81;5050902;28;20256;-85
2023/10/15 05:37:42;;;;;;;14.33;13.10;;;;;;;12.73;87.17;92517.19;5049864;28;20189;-79
2023/10/15 05:40:08;;;;;;;14.10;12.90;;;;;;;12.87;85.71;92525.78;5067681;28;20213;-81
2023/10/15 05:42:35;;;;;;;15.87;12.70;;;;;;;12.95;85.01;92527.69;5062506;28;20185;-80
2023/10/15 05:45:01;;;;;;;17.83;14.07;;;;;;;13.01;84.23;92510.06;5063234;28;20232;-81
2023/10/15 05:47:28;;;;;;;16.20;14.47;;;;;;;13.17;83.66;92522.53;5075312;28;20181;-79
2023/10/15 05:49:55;;;;;;;14.93;13.40;;;;;;;13.28;83.08;92521.25;5070170;28;20217;-79
2023/10/15 05:52:20;;;;;;;14.43;13.17;;;;;;;13.26;83.31;92496.41;5066331;28;20220;-81
2023/10/15 05:54:47;;;;;;;16.73;14.30;;;;;;;13.44;83.88;92524.28;5062255;28;20233;-84
2023/10/15 05:57:13;;;;;;;14.90;13.57;;;;;;;13.52;83.41;92518.34;5068227;28;20185;-82
2023/10/15 05:59:38;;;;;;;13.97;12.63;;;;;;;13.63;82.79;92519.66;5068487;28;20284;-80
2023/10/15 06:02:04;;;;;;;15.87;14.17;;;;;;;13.63;82.07;92507.31;5075670;28;20189;-76
2023/10/15 06:04:30;;;;;;;17.73;12.97;;;;;;;13.79;81.21;92521.59;5065954;28;20217;-75
2023/10/15 06:06:56;;;;;;;15.63;14.37;;;;;;;13.78;81.89;92520.06;5069871;28;20189;-76
2023/10/15 06:09:21;;;;;;;13.87;12.67;;;;;;;14.12;76.88;92525.50;5066903;28;20210;-76
2023/10/15 06:11:47;;;;;;;14.43;13.07;;;;;;;14.13;77.44;92531.53;5067859;28;20212;-77
2023/10/15 06:14:12;;;;;;;13.33;12.33;;;;;;;14.09;77.41;92512.97;5068452;28;20232;-87
2023/10/15 06:16:37;;;;;;;19.27;14.57;;;;;;;14.09;78.43;92512.19;5070130;28;20235;-81
2023/10/15 06:19:03;;;;;;;17.00;15.27;;;;;;;14.41;77.91;92528.44;5046796;28;20301;-75
2023/10/15 06:21:28;;;;;;;18.37;16.37;;;;;;;14.37;78.00;92514.38;5049246;28;20194;-81
2023/10/15 06:23:54;;;;;;;24.73;15.70;;;;;;;14.57;77.22;92528.81;5044338;28;20222;-79
2023/10/15 06:26:19;;;;;;;22.10;16.73;;;;;;;14.62;75.70;92506.88;5043555;28;20190;-78
2023/10/15 06:28:45;;;;;;;19.30;15.77;;;;;;;14.76;75.77;92520.66;5043035;28;20234;-80
2023/10/15 06:31:10;;;;;;;15.50;13.90;;;;;;;14.75;75.96;92519.13;5049365;28;20208;-81
2023/10/15 06:33:40;;;;;;;17.13;13.37;;;;;;;14.82;75.30;92511.59;5045686;28;20225;-81
2023/10/15 06:36:06;;;;;;;13.57;12.43;;;;;;;14.80;74.36;92513.72;5049047;28;20183;-79
2023/10/15 06:38:33;;;;;;;15.37;13.90;;;;;;;14.95;74.38;92513.28;5049154;28;20222;-78
2023/10/15 06:41:00;;;;;;;16.40;14.10;;;;;;;15.12;73.72;92505.44;5047066;28;20190;-78
2023/10/15 06:43:25;;;;;;;15.30;13.50;;;;;;;15.10;73.27;92511.00;5045412;28;20232;-77
2023/10/15 06:45:51;;;;;;;14.83;13.57;;;;;;;15.22;73.06;92515.66;5046703;28;20317;-76
2023/10/15 06:48:18;;;;;;;14.80;13.27;;;;;;;15.22;72.80;92515.66;5045885;28;20254;-79
2023/10/15 06:50:43;;;;;;;15.97;14.30;;;;;;;15.49;71.90;92518.78;5046162;28;20186;-77
2023/10/15 06:53:09;;;;;;;22.70;13.23;;;;;;;15.66;71.83;92512.72;5044193;28;20226;-79
2023/10/15 06:55:35;;;;;;;20.70;13.60;;;;;;;15.43;73.23;92516.63;5047023;28;20189;-77
2023/10/15 06:58:01;;;;;;;15.97;13.17;;;;;;;15.25;73.05;92505.28;5045089;28;20260;-81
2023/10/15 07:00:28;;;;;;;14.53;13.17;;;;;;;15.58;71.32;92495.88;5044651;28;20220;-76
2023/10/15 07:02:54;;;;;;;14.87;12.60;;;;;;;15.75;70.59;92503.00;5045750;28;20222;-77
2023/10/15 07:05:23;;;;;;;19.10;13.37;;;;;;;15.81;70.21;92507.00;5047676;28;20258;-74
2023/10/15 07:07:49;;;;;;;15.17;13.57;;;;;;;15.99;69.53;92503.22;5044311;28;20222;-75
2023/10/15 07:10:15;;;;;;;16.83;13.90;;;;;;;15.94;69.55;92500.75;5042841;28;20213;-74
2023/10/15 07:12:45;;;;;;;14.30;12.83;;;;;;;15.95;70.43;92497.06;5045362;28;20277;-76
2023/10/15 07:15:13;;;;;;;16.90;13.60;;;;;;;15.99;70.02;92472.41;5046493;28;20182;-76
2023/10/15 07:17:39;;;;;;;15.83;14.30;;;;;;;16.19;70.54;92492.03;5048383;28;20185;-78
2023/10/15 07:20:27;;;;;;;15.57;13.20;;;;;;;16.49;68.70;92493.66;5045935;28;20190;-77
2023/10/15 07:22:53;;;;;;;18.77;13.23;;;;;;;16.36;68.81;92491.97;5047511;28;20193;-78
2023/10/15 07:25:20;;;;;;;16.27;13.63;;;;;;;16.41;69.74;92493.63;5035782;28;20182;-75
2023/10/15 07:27:48;;;;;;;15.27;13.60;;;;;;;16.68;67.95;92494.03;5048518;28;20209;-76
2023/10/15 07:30:15;;;;;;;14.67;12.70;;;;;;;16.62;66.63;92478.72;5045697;28;20192;-75
2023/10/15 07:32:42;;;;;;;14.70;13.27;;;;;;;16.49;67.09;92495.50;5045366;28;20225;-75
2023/10/15 07:35:12;;;;;;;14.47;13.10;;;;;;;16.48;67.89;92494.75;5041349;28;20194;-74
2023/10/15 07:37:42;;;;;;;13.53;12.23;;;;;;;16.78;66.55;92488.38;5047994;28;20182;-74
2023/10/15 07:40:18;;;;;;;13.47;12.17;;;;;;;16.82;65.74;92475.34;5033027;28;20253;-75
2023/10/15 07:42:45;;;;;;;15.77;13.00;;;;;;;17.11;64.20;92488.50;5047610;28;20210;-75
2023/10/15 07:45:11;;;;;;;15.30;13.77;;;;;;;16.94;65.44;92486.75;5035056;28;20214;-75
2023/10/15 07:47:39;;;;;;;15.00;13.50;;;;;;;17.11;64.69;92473.44;5043463;28;20193;-77
2023/10/15 07:50:07;;;;;;;13.33;11.90;;;;;;;17.25;63.97;92478.47;5043586;28;20198;-76
2023/10/15 07:52:33;;;;;;;15.07;13.47;;;;;;;17.26;63.55;92480.78;5045674;28;20244;-78
2023/10/15 07:54:59;;;;;;;14.00;12.40;;;;;;;17.20;64.36;92468.09;5044209;28;20229;-77
2023/10/15 07:57:25;;;;;;;15.07;12.87;;;;;;;17.18;63.94;92471.06;5048649;28;20262;-76
2023/10/15 07:59:54;;;;;;;14.07;12.53;;;;;;;17.31;63.02;92467.41;5047781;28;20234;-83
2023/10/15 08:02:21;;;;;;;15.33;13.07;;;;;;;16.89;64.35;92465.81;5051776;28;20193;-80
2023/10/15 08:04:47;;;;;;;15.33;12.50;;;;;;;17.23;63.59;92475.38;5041808;28;20218;-82
2023/10/15 08:07:12;;;;;;;15.53;13.37;;;;;;;17.47;62.88;92483.44;5043454;28;20192;-84
2023/10/15 08:09:38;;;;;;;14.47;13.17;;;;;;;17.29;63.38;92474.84;5041243;28;20257;-81
2023/10/15 08:12:04;;;;;;;14.97;12.77;;;;;;;17.12;64.88;92479.50;5048375;28;20252;-78
2023/10/15 08:14:29;;;;;;;14.60;13.20;;;;;;;17.58;62.32;92474.81;5042211;28;21045;-75
2023/10/15 08:16:55;;;;;;;14.20;12.47;;;;;;;17.69;61.83;92472.53;5045672;28;20270;-79
2023/10/15 08:19:20;;;;;;;14.87;12.93;;;;;;;17.63;62.04;92466.66;5047096;28;20247;-85
2023/10/15 08:21:46;;;;;;;15.63;13.93;;;;;;;17.62;62.34;92471.53;5048339;28;20206;-79
2023/10/15 08:24:14;;;;;;;17.50;12.83;;;;;;;17.66;62.42;92452.06;5039189;28;20218;-86
2023/10/15 08:26:41;;;;;;;17.53;14.13;;;;;;;17.75;62.13;92459.91;5047365;28;20212;-78
2023/10/15 08:29:09;;;;;;;15.57;13.67;;;;;;;17.72;62.48;92469.25;5043390;28;20222;-77
2023/10/15 08:31:35;;;;;;;16.10;13.43;;;;;;;18.04;61.30;92462.41;5036152;28;20232;-77
2023/10/15 08:34:01;;;;;;;17.37;14.03;;;;;;;17.82;62.70;92468.06;5047188;28;20221;-76
2023/10/15 08:36:26;;;;;;;14.83;13.17;;;;;;;17.96;61.37;92444.78;5042698;28;20186;-78
2023/10/15 08:38:52;;;;;;;14.90;13.10;;;;;;;18.06;61.46;92453.06;5040993;28;20226;-82
2023/10/15 08:41:21;;;;;;;17.13;15.33;;;;;;;18.10;61.55;92455.81;5044713;28;20203;-80
2023/10/15 08:43:50;;;;;;;17.53;15.67;;;;;;;18.12;61.43;92462.31;5040628;28;20242;-79
2023/10/15 08:46:22;;;;;;;23.37;14.33;;;;;;;18.17;61.04;92458.69;5044874;28;20215;-76
2023/10/15 08:48:49;;;;;;;15.87;14.27;;;;;;;18.13;61.29;92452.53;5047046;28;20229;-79
2023/10/15 08:51:21;;;;;;;17.63;13.30;;;;;;;17.94;62.73;92457.53;5046982;28;20241;-76
2023/10/15 08:53:50;;;;;;;16.07;14.47;;;;;;;18.11;62.03;92452.84;5043958;28;20233;-74
2023/10/15 08:56:21;;;;;;;16.10;14.60;;;;;;;18.07;61.77;92451.94;5033421;28;20199;-74
2023/10/15 08:58:52;;;;;;;18.43;14.30;;;;;;;18.23;61.47;92457.38;5039997;28;20736;-76
2023/10/15 09:01:21;;;;;;;16.17;14.43;;;;;;;18.37;59.89;92461.25;5038793;28;20178;-78
2023/10/15 09:03:46;;;;;;;21.50;14.40;;;;;;;18.47;60.41;92458.22;5052842;28;20312;-74
2023/10/15 09:06:12;;;;;;;15.77;14.27;;;;;;;18.45;60.55;92456.97;5065754;28;20198;-74
2023/10/15 09:08:41;;;;;;;16.00;14.37;;;;;;;18.68;58.98;92458.09;5060567;28;20260;-74
2023/10/15 09:11:07;;;;;;;18.63;13.80;;;;;;;18.61;59.27;92442.78;5065915;28;20192;-75
2023/10/15 09:13:36;;;;;;;19.97;14.13;;;;;;;18.54;59.83;92433.84;5082161;28;20222;-76
2023/10/15 09:16:04;;;;;;;17.00;15.27;;;;;;;18.80;58.88;92439.56;5061741;28;20193;-82
2023/10/15 09:18:31;;;;;;;18.03;15.13;;;;;;;19.00;57.57;92444.72;5063409;28;20226;-76
2023/10/15 09:20:58;;;;;;;18.27;15.10;;;;;;;18.91;58.29;92438.03;5065061;28;20202;-81
2023/10/15 09:23:24;;;;;;;16.37;13.30;;;;;;;18.71;58.80;92436.25;5057445;28;20231;-80
2023/10/15 09:25:56;;;;;;;17.63;13.80;;;;;;;18.71;59.44;92437.03;5066925;28;20197;-80
2023/10/15 09:28:22;;;;;;;14.97;13.57;;;;;;;18.94;58.67;92437.34;5053570;28;20248;-78
2023/10/15 09:30:49;;;;;;;15.50;13.70;;;;;;;18.68;59.78;92423.69;5060864;28;20178;-78
2023/10/15 09:33:17;;;;;;;19.87;15.00;;;;;;;18.96;57.85;92427.97;5065395;28;20868;-78
2023/10/15 09:35:43;;;;;;;18.60;14.07;;;;;;;18.97;58.18;92429.50;5067128;28;20259;-77
2023/10/15 09:38:13;;;;;;;14.67;13.17;;;;;;;18.81;58.51;92398.78;5072930;28;20228;-79
2023/10/15 09:40:39;;;;;;;15.60;13.77;;;;;;;19.10;58.80;92422.31;5069750;28;20258;-77
2023/10/15 09:43:05;;;;;;;20.30;13.43;;;;;;;19.20;57.36;92427.16;5070692;28;20233;-78
2023/10/15 09:45:31;;;;;;;14.97;13.50;;;;;;;19.27;57.46;92421.28;5067615;28;20223;-80
2023/10/15 09:47:59;;;;;;;21.17;14.37;;;;;;;19.45;57.08;92423.34;5052713;28;20639;-81
2023/10/15 09:50:38;;;;;;;18.27;14.00;;;;;;;19.25;56.67;92381.16;5067880;28;20689;-78
2023/10/15 09:53:11;;;;;;;21.30;14.90;;;;;;;19.38;56.05;92423.13;5061744;28;20258;-80
2023/10/15 09:55:38;;;;;;;14.83;13.43;;;;;;;19.61;56.24;92418.84;5048097;28;20179;-85
2023/10/15 09:58:04;;;;;;;15.70;14.20;;;;;;;19.87;54.66;92423.72;5045642;28;20829;-82
2023/10/15 10:03:47;;;;;;;14.93;13.43;;;;;;;20.12;54.40;92415.28;5036817;28;20234;-85
2023/10/15 10:06:31;;;;;;;18.37;12.57;;;;;;;20.19;54.21;92417.34;5046009;28;20203;-82
2023/10/15 10:09:16;;;;;;;21.50;12.53;;;;;;;20.17;54.38;92412.41;5049016;28;20251;-80
2023/10/15 10:12:06;;;;;;;17.73;12.40;;;;;;;20.09;54.61;92408.03;5045814;28;20231;-83
2023/10/15 10:14:46;;;;;;;19.30;12.70;;;;;;;20.25;53.77;92411.47;5045448;28;20233;-80
2023/10/15 10:17:12;;;;;;;18.40;13.90;;;;;;;20.51;53.13;92389.72;5043797;28;20193;-83
2023/10/15 10:19:41;;;;;;;14.85;13.35;;;;;;;20.64;52.77;92389.28;5048595;28;20288;-85
2023/10/15 10:22:20;;;;;;;14.77;13.47;;;;;;;20.53;53.51;92392.78;5047603;28;20174;-83
2023/10/15 10:24:47;;;;;;;14.00;12.13;;;;;;;20.52;52.61;92381.44;5048559;28;20272;-82
2023/10/15 10:27:14;;;;;;;12.27;11.07;;;;;;;20.55;52.41;92374.66;5049379;28;20220;-85
2023/10/15 10:29:41;;;;;;;22.40;11.98;;;;;;;20.66;53.37;92376.44;5049171;28;20248;-85
2023/10/15 10:32:10;;;;;;;15.90;11.83;;;;;;;20.82;52.99;92360.47;5049100;28;20220;-84
2023/10/15 10:34:35;;;;;;;16.55;11.55;;;;;;;20.98;52.17;92366.53;5049358;28;20225;-80
2023/10/15 10:37:00;;;;;;;14.63;11.50;;;;;;;21.06;51.78;92370.13;5048290;28;20266;-85
2023/10/15 10:39:43;;;;;;;16.77;11.77;;;;;;;21.23;50.36;92364.41;5043938;28;20258;-84
2023/10/15 10:42:21;;;;;;;15.80;11.13;;;;;;;21.18;51.18;92362.00;5045419;28;20181;-81
2023/10/15 10:44:46;;;;;;;19.45;13.43;;;;;;;21.38;51.13;92359.00;5048161;28;20234;-84
2023/10/15 10:47:21;;;;;;;13.73;11.20;;;;;;;21.62;49.08;92355.28;5046392;28;20221;-78
2023/10/15 10:50:03;;;;;;;14.30;12.77;;;;;;;21.32;49.88;92331.22;5045377;28;20236;-73
2023/10/15 10:52:35;;;;;;;12.80;11.60;;;;;;;21.41;50.46;92341.59;5042164;28;20208;-83
2023/10/15 10:55:32;;;;;;;13.35;12.07;;;;;;;21.56;49.78;92336.19;5046842;28;20302;-76
2023/10/15 10:58:00;;;;;;;15.05;12.10;;;;;;;21.59;49.85;92338.16;5045091;28;20245;-76
2023/10/15 11:00:30;;;;;;;12.98;11.90;;;;;;;21.81;48.27;92328.69;5044854;28;20204;-75
2023/10/15 11:02:58;;;;;;;12.27;11.02;;;;;;;21.81;46.40;92329.47;5042116;28;20227;-75
2023/10/15 11:05:24;;;;;;;12.23;11.00;;;;;;;22.03;44.98;92318.06;5044861;28;20195;-75
2023/10/15 11:07:49;;;;;;;15.98;10.77;;;;;;;21.93;46.67;92321.31;5043984;28;20191;-75
2023/10/15 11:10:16;;;;;;;11.48;10.48;;;;;;;22.02;45.20;92315.78;5047430;28;20210;-75
2023/10/15 11:12:45;;;;;;;13.30;10.30;;;;;;;21.97;43.02;92310.75;5041234;28;20232;-75
2023/10/15 11:15:11;;;;;;;11.75;10.52;;;;;;;22.05;43.09;92318.47;5043105;28;20202;-79
2023/10/15 11:17:36;;;;;;;11.50;9.35;;;;;;;21.96;42.93;92319.84;5045130;28;20200;-76
2023/10/15 11:20:03;;;;;;;11.80;10.32;;;;;;;21.87;43.06;92317.41;5044683;28;20250;-76
2023/10/15 11:22:29;;;;;;;13.80;11.18;;;;;;;21.86;42.04;92312.44;5040242;28;20176;-74
2023/10/15 11:24:55;;;;;;;12.25;11.23;;;;;;;22.01;41.85;92315.00;5046810;28;20255;-77
2023/10/15 11:27:21;;;;;;;11.88;10.70;;;;;;;21.88;42.53;92312.88;5044162;28;20190;-80
2023/10/15 11:29:47;;;;;;;12.10;11.10;;;;;;;21.88;42.06;92308.31;5046800;28;20943;-79
2023/10/15 11:32:12;;;;;;;11.40;10.27;;;;;;;21.92;43.27;92303.84;5048502;28;20219;-79
2023/10/15 11:34:39;;;;;;;11.65;10.40;;;;;;;22.07;42.94;92304.84;5047622;28;20228;-77
2023/10/15 11:37:07;;;;;;;11.27;10.38;;;;;;;22.29;42.67;92297.94;5047902;28;20199;-77
2023/10/15 11:39:42;;;;;;;11.80;10.90;;;;;;;22.38;42.40;92301.91;5046741;28;20280;-76
2023/10/15 11:42:08;;;;;;;13.23;10.57;;;;;;;22.34;43.61;92293.09;5046726;28;20206;-74
2023/10/15 11:44:36;;;;;;;11.05;10.25;;;;;;;22.36;45.21;92292.72;5044716;28;20287;-75
2023/10/15 11:47:08;;;;;;;12.15;11.02;;;;;;;22.28;44.41;92294.50;5048044;28;20300;-77